createdAt,value
2022-10-28T00:00:36.081Z,96.57
2022-10-28T00:04:38.848Z,96.6
2022-10-28T00:06:39.970Z,96.6
2022-10-28T00:08:41.376Z,96.46
2022-10-28T00:10:42.448Z,96.82
2022-10-28T00:12:44.292Z,96.89
2022-10-28T00:14:45.570Z,96.91
2022-10-28T00:16:46.609Z,96.94
2022-10-28T00:18:47.814Z,97.01
2022-10-28T00:20:48.860Z,96.98
2022-10-28T00:22:50.572Z,97.08
2022-10-28T00:24:52.297Z,97.09
2022-10-28T00:26:54.176Z,97.21
2022-10-28T00:28:55.557Z,97.29
2022-10-28T00:30:57.000Z,97.45
2022-10-28T00:32:58.129Z,97.47
2022-10-28T00:37:00.584Z,97.38
2022-10-28T00:39:01.705Z,97.39
2022-10-28T00:41:02.957Z,97.37
2022-10-28T00:43:03.993Z,97.45
2022-10-28T00:45:05.595Z,97.4
2022-10-28T00:47:07.204Z,97.33
2022-10-28T00:49:09.109Z,97.28
2022-10-28T00:53:12.616Z,97.16
2022-10-28T00:55:14.522Z,97.18
2022-10-28T00:57:16.296Z,97.15
2022-10-28T00:59:17.254Z,97.12
2022-10-28T01:01:18.660Z,97.36
2022-10-28T01:03:19.743Z,97.42
2022-10-28T01:05:21.560Z,97.48
2022-10-28T01:07:23.371Z,97.5
2022-10-28T01:11:26.434Z,97.42
2022-10-28T01:13:28.205Z,97.34
2022-10-28T01:15:29.932Z,97.35
2022-10-28T01:17:30.860Z,97.36
2022-10-28T01:19:31.858Z,97.41
2022-10-28T01:21:33.156Z,97.4
2022-10-28T01:23:34.543Z,97.41
2022-10-28T01:25:36.437Z,97.4
2022-10-28T01:27:38.319Z,97.41
2022-10-28T01:29:39.951Z,97.52
2022-10-28T01:31:41.569Z,97.62
2022-10-28T01:35:43.683Z,97.6
2022-10-28T01:37:44.915Z,97.58
2022-10-28T01:39:46.428Z,97.59
2022-10-28T01:41:48.003Z,97.62
2022-10-28T01:45:51.445Z,97.64
2022-10-28T01:47:53.586Z,97.67
2022-10-28T01:49:54.536Z,97.68
2022-10-28T01:51:56.381Z,97.69
2022-10-28T01:53:58.273Z,97.75
2022-10-28T01:55:59.460Z,97.74
2022-10-28T01:58:01.032Z,97.75
2022-10-28T02:00:02.094Z,97.76
2022-10-28T02:04:05.320Z,97.82
2022-10-28T02:06:06.286Z,97.82
2022-10-28T02:08:08.093Z,97.77
2022-10-28T02:10:09.774Z,97.77
2022-10-28T02:12:11.469Z,97.71
2022-10-28T02:14:13.380Z,97.76
2022-10-28T02:18:16.704Z,97.82
2022-10-28T02:20:17.724Z,97.9
2022-10-28T02:22:18.681Z,97.93
2022-10-28T02:24:19.694Z,97.9
2022-10-28T02:28:21.632Z,98.06
2022-10-28T02:30:23.525Z,98.11
2022-10-28T02:32:25.365Z,97.99
2022-10-28T02:34:26.783Z,98.02
2022-10-28T02:36:28.521Z,98.07
2022-10-28T02:38:30.001Z,98.1
2022-10-28T02:40:31.100Z,98.15
2022-10-28T02:42:32.140Z,98.19
2022-10-28T02:44:33.575Z,98.18
2022-10-28T02:46:35.433Z,98.19
2022-10-28T02:48:37.279Z,98.17
2022-10-28T02:50:38.531Z,98.19
2022-10-28T02:52:40.207Z,98.13
2022-10-28T02:54:41.875Z,97.98
2022-10-28T02:56:43.467Z,97.91
2022-10-28T02:58:44.535Z,98.05
2022-10-28T03:00:46.295Z,98.02
2022-10-28T03:02:47.736Z,97.81
2022-10-28T03:04:48.984Z,97.95
2022-10-28T03:06:50.270Z,97.95
2022-10-28T03:10:53.521Z,98.11
2022-10-28T03:12:55.444Z,98.16
2022-10-28T03:14:56.943Z,98.14
2022-10-28T03:16:57.965Z,98.07
2022-10-28T03:18:59.219Z,98
2022-10-28T03:21:01.042Z,97.99
2022-10-28T03:23:02.085Z,97.86
2022-10-28T03:25:03.281Z,97.82
2022-10-28T03:27:04.363Z,97.82
2022-10-28T03:29:06.050Z,97.94
2022-10-28T03:31:06.976Z,98.04
2022-10-28T03:33:08.602Z,98.11
2022-10-28T03:35:09.683Z,98.08
2022-10-28T03:37:11.632Z,98.03
2022-10-28T03:39:13.029Z,98.04
2022-10-28T03:43:16.153Z,98.25
2022-10-28T03:45:17.382Z,98.27
2022-10-28T03:47:18.828Z,98.27
2022-10-28T03:49:20.140Z,98.31
2022-10-28T03:51:21.752Z,98.29
2022-10-28T03:53:25.245Z,98.27
2022-10-28T03:55:24.217Z,98.28
2022-10-28T03:57:25.255Z,98.27
2022-10-28T03:59:26.264Z,98.28
2022-10-28T04:01:27.829Z,98.26
2022-10-28T04:03:28.666Z,98.27
2022-10-28T04:05:30.010Z,98.15
2022-10-28T04:07:31.599Z,98.13
2022-10-28T04:09:33.118Z,98.15
2022-10-28T04:11:34.790Z,98.13
2022-10-28T04:13:36.572Z,98.13
2022-10-28T04:15:37.530Z,98.12
2022-10-28T04:17:38.515Z,98.14
2022-10-28T04:19:39.839Z,98.14
2022-10-28T04:21:41.672Z,98.13
2022-10-28T04:25:45.205Z,98.14
2022-10-28T04:27:46.641Z,98.11
2022-10-28T04:29:48.488Z,98.11
2022-10-28T04:31:51.369Z,98.1
2022-10-28T04:33:51.202Z,98.11
2022-10-28T04:35:52.639Z,98.09
2022-10-28T04:37:54.627Z,98.06
2022-10-28T04:39:55.816Z,98.02
2022-10-28T04:41:56.808Z,98.05
2022-10-28T04:42:40.646Z,98.02
2022-10-28T04:44:42.222Z,97.84
2022-10-28T04:46:43.851Z,97.79
2022-10-28T04:48:44.934Z,97.85
2022-10-28T04:50:46.316Z,97.92
2022-10-28T04:52:47.883Z,97.99
2022-10-28T04:54:49.064Z,98
2022-10-28T04:56:50.172Z,97.97
2022-10-28T04:58:51.860Z,97.94
2022-10-28T05:00:53.128Z,97.99
2022-10-28T05:02:54.406Z,97.92
2022-10-28T05:04:55.985Z,97.91
2022-10-28T05:08:59.063Z,97.93
2022-10-28T05:11:00.370Z,97.98
2022-10-28T05:13:01.634Z,98.01
2022-10-28T05:15:03.152Z,98.02
2022-10-28T05:19:06.293Z,98.02
2022-10-28T05:21:07.294Z,97.99
2022-10-28T05:23:08.905Z,97.99
2022-10-28T05:25:10.504Z,97.96
2022-10-28T05:27:12.100Z,97.94
2022-10-28T05:29:13.846Z,97.86
2022-10-28T05:31:15.716Z,97.84
2022-10-28T05:33:16.766Z,97.74
2022-10-28T05:35:18.468Z,97.73
2022-10-28T05:37:19.710Z,97.75
2022-10-28T05:39:21.250Z,97.46
2022-10-28T05:41:23.406Z,97.54
2022-10-28T05:43:24.332Z,97.83
2022-10-28T05:45:26.275Z,97.87
2022-10-28T05:47:27.193Z,97.59
2022-10-28T05:49:28.827Z,97.48
2022-10-28T05:51:30.056Z,97.45
2022-10-28T05:53:31.463Z,97.03
2022-10-28T05:55:32.544Z,96.97
2022-10-28T05:57:34.373Z,97.21
2022-10-28T06:01:36.807Z,97.37
2022-10-28T06:03:37.783Z,97.43
2022-10-28T06:05:38.742Z,97.48
2022-10-28T06:07:39.911Z,97.54
2022-10-28T06:09:40.905Z,97.55
2022-10-28T06:11:40.718Z,97.58
2022-10-28T06:13:42.557Z,97.61
2022-10-28T06:15:43.691Z,97.64
2022-10-28T06:17:45.109Z,97.66
2022-10-28T06:19:46.735Z,97.68
2022-10-28T06:21:47.997Z,97.75
2022-10-28T06:23:49.313Z,97.8
2022-10-28T06:25:50.512Z,97.83
2022-10-28T06:27:52.028Z,97.85
2022-10-28T06:29:53.549Z,97.86
2022-10-28T06:33:55.650Z,97.8
2022-10-28T06:35:56.716Z,97.69
2022-10-28T06:37:58.074Z,97.75
2022-10-28T06:39:59.648Z,97.75
2022-10-28T06:44:02.802Z,97.84
2022-10-28T06:46:04.546Z,97.98
2022-10-28T06:48:07.428Z,98.03
2022-10-28T06:50:08.572Z,98.02
2022-10-28T06:52:10.044Z,98.04
2022-10-28T06:54:11.016Z,98.05
2022-10-28T06:56:12.592Z,98.14
2022-10-28T06:58:13.750Z,98.09
2022-10-28T07:00:15.326Z,98.04
2022-10-28T07:02:17.030Z,97.97
2022-10-28T07:04:18.305Z,97.87
2022-10-28T07:06:19.250Z,97.8
2022-10-28T07:08:21.146Z,97.77
2022-10-28T07:10:22.855Z,97.72
2022-10-28T07:12:24.507Z,97.7
2022-10-28T07:14:26.296Z,97.73
2022-10-28T07:16:28.093Z,97.61
2022-10-28T07:18:29.323Z,97.6
2022-10-28T07:20:31.159Z,97.6
2022-10-28T07:22:32.276Z,97.6
2022-10-28T07:26:35.196Z,97.26
2022-10-28T07:28:36.595Z,97.09
2022-10-28T07:30:38.479Z,97.04
2022-10-28T07:32:39.948Z,97.06
2022-10-28T07:34:40.886Z,97.1
2022-10-28T07:36:42.575Z,97.15
2022-10-28T07:38:43.768Z,97.19
2022-10-28T07:42:46.587Z,97.25
2022-10-28T07:44:48.405Z,97.16
2022-10-28T07:46:51.945Z,97.38
2022-10-28T07:48:51.532Z,97.45
2022-10-28T07:50:52.672Z,97.35
2022-10-28T07:52:54.512Z,97.52
2022-10-28T07:54:55.270Z,97.49
2022-10-28T07:56:56.546Z,97.2
2022-10-28T07:58:57.441Z,96.37
2022-10-28T08:00:58.509Z,95.94
2022-10-28T08:02:59.704Z,95.12
2022-10-28T08:05:01.241Z,94.39
2022-10-28T08:07:02.976Z,91.66
2022-10-28T08:09:04.635Z,92.01
2022-10-28T08:11:06.071Z,92.79
2022-10-28T08:13:07.598Z,93.03
2022-10-28T08:15:08.746Z,93.19
2022-10-28T08:17:10.518Z,93.57
2022-10-28T08:19:12.004Z,93.78
2022-10-28T08:21:13.165Z,93.81
2022-10-28T08:23:14.730Z,93.52
2022-10-28T08:25:15.706Z,93.07
2022-10-28T08:27:16.879Z,92.84
2022-10-28T08:29:18.371Z,92.28
2022-10-28T08:31:20.183Z,91.89
2022-10-28T08:33:21.935Z,91.44
2022-10-28T08:35:23.342Z,90.82
2022-10-28T08:37:25.041Z,89.55
2022-10-28T08:39:25.871Z,89.87
2022-10-28T08:41:26.994Z,88.08
2022-10-28T08:43:40.189Z,88.81
2022-10-28T08:45:30.346Z,88.88
2022-10-28T08:47:32.234Z,86.95
2022-10-28T08:49:33.641Z,86.99
2022-10-28T08:51:35.194Z,86.91
2022-10-28T08:53:36.112Z,86.44
2022-10-28T08:57:38.589Z,87.5
2022-10-28T08:59:40.332Z,89.53
2022-10-28T09:01:41.804Z,90.46
2022-10-28T09:03:43.195Z,90.21
2022-10-28T09:07:46.089Z,91.37
2022-10-28T09:09:47.247Z,90.86
2022-10-28T09:11:48.538Z,90.36
2022-10-28T09:13:49.460Z,90.77
2022-10-28T09:15:51.103Z,90.43
2022-10-28T09:17:53.026Z,91.12
2022-10-28T09:19:54.576Z,91.63
2022-10-28T09:21:56.272Z,91.14
2022-10-28T09:23:57.572Z,91.03
2022-10-28T09:25:59.137Z,91.16
2022-10-28T09:28:00.304Z,90.82
2022-10-28T09:30:01.837Z,90.4
2022-10-28T09:32:02.962Z,89.76
2022-10-28T09:34:04.511Z,89.22
2022-10-28T09:36:05.344Z,89.15
2022-10-28T09:38:06.496Z,89.05
2022-10-28T09:40:07.433Z,89.07
2022-10-28T09:42:08.308Z,88.5
2022-10-28T09:44:09.547Z,89.1
2022-10-28T09:46:10.799Z,88.14
2022-10-28T09:48:11.868Z,87.65
2022-10-28T09:50:13.340Z,87.48
2022-10-28T09:52:15.922Z,86.62
2022-10-28T09:54:16.179Z,85.77
2022-10-28T09:56:17.042Z,85.07
2022-10-28T09:58:18.413Z,84.44
2022-10-28T10:00:19.708Z,83.59
2022-10-28T10:04:22.146Z,82.76
2022-10-28T10:08:25.106Z,80.75
2022-10-28T10:10:26.517Z,79.22
2022-10-28T10:12:27.778Z,77.86
2022-10-28T10:14:28.987Z,75.63
2022-10-28T10:16:30.398Z,73.92
2022-10-28T10:18:31.577Z,73.76
2022-10-28T10:20:33.254Z,73.62
2022-10-28T10:22:34.748Z,72.98
2022-10-28T10:24:36.163Z,73.97
2022-10-28T10:26:37.781Z,74.86
2022-10-28T10:28:39.209Z,75.57
2022-10-28T10:30:40.135Z,76.16
2022-10-28T10:32:41.663Z,76.35
2022-10-28T10:34:42.510Z,75.3
2022-10-28T10:38:44.876Z,74.23
2022-10-28T10:40:46.079Z,75.41
2022-10-28T10:42:51.899Z,74.32
2022-10-28T10:44:48.915Z,71.9
2022-10-28T10:48:51.562Z,72.75
2022-10-28T10:50:52.460Z,71.08
2022-10-28T10:52:53.463Z,70.85
2022-10-28T10:54:55.086Z,63.3
2022-10-28T10:58:57.647Z,62.47
2022-10-28T11:00:59.098Z,64.63
2022-10-28T11:03:00.429Z,63.82
2022-10-28T11:05:01.706Z,65.95
2022-10-28T11:07:02.860Z,65.2
2022-10-28T11:09:04.103Z,68.29
2022-10-28T11:11:04.881Z,69.98
2022-10-28T11:13:05.701Z,67.12
2022-10-28T11:15:07.407Z,66.92
2022-10-28T11:17:08.750Z,64.84
2022-10-28T11:19:09.609Z,66.44
2022-10-28T11:21:10.656Z,67.32
2022-10-28T11:23:12.419Z,67.38
2022-10-28T11:25:13.882Z,64.91
2022-10-28T11:27:14.859Z,64.56
2022-10-28T11:29:59.810Z,69.45
2022-10-28T11:32:01.201Z,64.4
2022-10-28T11:34:02.229Z,62.2
2022-10-28T11:36:03.165Z,63.05
2022-10-28T11:38:04.009Z,60.53
2022-10-28T11:42:07.023Z,63.25
2022-10-28T11:44:08.483Z,60.88
2022-10-28T11:46:09.555Z,62.28
2022-10-28T12:18:30.738Z,57.98
2022-10-28T12:20:31.304Z,63.18
2022-10-28T12:24:33.313Z,56.43
2022-10-28T12:26:34.669Z,56.08
2022-10-28T12:28:36.267Z,55.44
2022-10-28T12:30:37.524Z,52.02
2022-10-28T12:32:39.214Z,53.49
2022-10-28T12:34:40.140Z,52.09
2022-10-28T12:36:41.146Z,53.22
2022-10-28T12:38:42.614Z,49.45
2022-10-28T12:40:43.909Z,49.8
2022-10-28T12:42:45.330Z,49.96
2022-10-28T12:48:49.018Z,51.28
2022-10-28T12:50:50.434Z,50.05
2022-10-28T12:52:52.144Z,50.78
2022-10-28T12:54:53.927Z,50.49
2022-10-28T12:56:54.798Z,52.37
2022-10-28T12:58:55.979Z,50.75
2022-10-28T13:00:57.581Z,52.1
2022-10-28T13:02:59.156Z,54.79
2022-10-28T13:05:00.197Z,51.82
2022-10-28T13:07:01.778Z,53.2
2022-10-28T13:09:02.773Z,49.41
2022-10-28T13:13:07.954Z,49.88
2022-10-28T13:15:06.300Z,49.24
2022-10-28T13:17:07.406Z,56.36
2022-10-28T13:19:08.987Z,51.13
2022-10-28T13:23:11.778Z,49.61
2022-10-28T13:25:12.700Z,49.24
2022-10-28T13:27:13.998Z,51.93
2022-10-28T13:29:15.659Z,51.26
2022-10-28T13:31:16.538Z,49.11
2022-10-28T13:33:17.699Z,47.31
2022-10-28T13:35:18.608Z,48.74
2022-10-28T13:37:20.240Z,51.86
2022-10-28T13:39:21.848Z,48.05
2022-10-28T13:41:22.616Z,46.89
2022-10-28T13:43:23.704Z,48.09
2022-10-28T13:45:25.318Z,48.51
2022-10-28T13:47:26.876Z,46.41
2022-10-28T13:49:27.837Z,45.5
2022-10-28T13:51:29.118Z,48.15
2022-10-28T13:55:33.491Z,46.01
2022-10-28T13:57:32.016Z,49.05
2022-10-28T13:59:33.239Z,50.73
2022-10-28T14:01:34.968Z,48.16
2022-10-28T14:05:37.175Z,49.2
2022-10-28T14:07:38.206Z,51.39
2022-10-28T14:09:41.113Z,55.26
2022-10-28T14:11:40.117Z,53.73
2022-10-28T14:13:41.343Z,56.45
2022-10-28T14:15:42.116Z,60.37
2022-10-28T14:17:43.440Z,60.87
2022-10-28T14:19:44.776Z,64.53
2022-10-28T14:21:46.169Z,68.2
2022-10-28T14:23:47.217Z,67.3
2022-10-28T14:25:48.075Z,68.99
2022-10-28T14:27:49.546Z,70.02
2022-10-28T14:29:51.062Z,68.27
2022-10-28T14:31:52.423Z,65.36
2022-10-28T14:33:53.571Z,66.99
2022-10-28T14:35:54.663Z,62.84
2022-10-28T14:37:56.067Z,60.64
2022-10-28T14:39:56.969Z,59.31
2022-10-28T14:41:58.112Z,60.95
2022-10-28T14:43:59.294Z,63.47
2022-10-28T14:46:00.951Z,61.54
2022-10-28T14:48:02.158Z,61.48
2022-10-28T14:50:03.519Z,63.95
2022-10-28T14:52:05.285Z,60.82
2022-10-28T14:54:06.212Z,61.13
2022-10-28T14:56:07.271Z,62.84
2022-10-28T14:58:08.895Z,61.59
2022-10-28T15:00:10.409Z,61.9
2022-10-28T15:04:13.285Z,67.37
2022-10-28T15:06:15.027Z,66.42
2022-10-28T15:08:15.893Z,65.94
2022-10-28T15:10:17.281Z,65.58
2022-10-28T15:12:18.395Z,65.16
2022-10-28T15:14:19.231Z,66.82
2022-10-28T15:16:20.949Z,67.56
2022-10-28T15:20:24.216Z,65.31
2022-10-28T15:22:25.643Z,63.94
2022-10-28T15:24:26.676Z,61.48
2022-10-28T15:26:28.493Z,60.83
2022-10-28T15:28:29.918Z,63
2022-10-28T15:30:30.776Z,61.12
2022-10-28T15:32:31.811Z,59.94
2022-10-28T15:34:33.479Z,60.51
2022-10-28T15:36:34.744Z,61.86
2022-10-28T15:38:36.139Z,61.63
2022-10-28T15:40:37.772Z,62.59
2022-10-28T15:42:38.794Z,62.43
2022-10-28T15:46:41.297Z,63.8
2022-10-28T15:48:42.806Z,64.35
2022-10-28T15:50:44.216Z,67.03
2022-10-28T15:52:45.444Z,66.88
2022-10-28T15:54:46.378Z,64.98
2022-10-28T15:56:47.661Z,66.13
2022-10-28T15:58:48.544Z,64.89
2022-10-28T16:00:49.905Z,67.62
2022-10-28T16:02:51.901Z,69.15
2022-10-28T16:04:52.929Z,69.73
2022-10-28T16:06:54.200Z,71.75
2022-10-28T16:08:55.584Z,70.19
2022-10-28T16:10:57.192Z,70.08
2022-10-28T16:12:58.559Z,67.44
2022-10-28T16:15:00.245Z,66.3
2022-10-28T16:17:01.488Z,66.1
2022-10-28T16:19:02.949Z,66.44
2022-10-28T16:21:04.600Z,66.81
2022-10-28T16:23:05.791Z,67.11
2022-10-28T16:25:07.216Z,67.72
2022-10-28T16:29:10.203Z,66.65
2022-10-28T16:31:11.488Z,69.03
2022-10-28T16:35:14.344Z,69.35
2022-10-28T16:37:16.013Z,67.99
2022-10-28T16:39:17.277Z,67.07
2022-10-28T16:41:18.282Z,68.24
2022-10-28T16:45:21.434Z,68.98
2022-10-28T16:47:22.970Z,69.65
2022-10-28T16:49:24.529Z,70.39
2022-10-28T16:51:25.775Z,69.47
2022-10-28T16:53:27.582Z,68.72
2022-10-28T16:55:28.962Z,69.84
2022-10-28T16:57:29.935Z,67.63
2022-10-28T16:59:31.437Z,68.72
2022-10-28T17:01:32.767Z,68.44
2022-10-28T17:03:34.069Z,69.75
2022-10-28T17:05:35.506Z,70.64
2022-10-28T17:07:36.710Z,70.96
2022-10-28T17:09:37.918Z,71.01
2022-10-28T17:11:39.305Z,70.41
2022-10-28T17:13:40.139Z,70.52
2022-10-28T17:15:41.603Z,69.72
2022-10-28T17:17:43.003Z,70
2022-10-28T17:19:44.653Z,71.76
2022-10-28T17:21:45.868Z,73.27
2022-10-28T17:23:47.584Z,72.93
2022-10-28T17:27:50.163Z,73.49
2022-10-28T17:29:51.583Z,73.89
2022-10-28T17:31:52.543Z,73.62
2022-10-28T17:33:54.342Z,73.58
2022-10-28T17:35:55.977Z,73.77
2022-10-28T17:37:57.961Z,70.97
2022-10-28T17:39:58.780Z,71.63
2022-10-28T17:42:00.030Z,72
2022-10-28T17:44:01.084Z,73.06
2022-10-28T17:46:02.429Z,73.8
2022-10-28T17:48:03.966Z,74.12
2022-10-28T17:50:05.065Z,74.84
2022-10-28T17:52:06.339Z,75.1
2022-10-28T17:54:07.769Z,75.03
2022-10-28T17:56:09.203Z,76.22
2022-10-28T17:58:10.652Z,77.19
2022-10-28T18:00:12.488Z,78.01
2022-10-28T18:02:13.451Z,78.71
2022-10-28T18:04:15.201Z,77.92
2022-10-28T18:06:16.244Z,77.55
2022-10-28T18:10:19.213Z,77.57
2022-10-28T18:12:20.289Z,77.3
2022-10-28T18:15:05.561Z,75.95
2022-10-28T18:17:07.066Z,75.74
2022-10-28T18:19:08.093Z,75.58
2022-10-28T18:21:09.132Z,75.94
2022-10-28T18:23:10.465Z,76.27
2022-10-28T18:25:11.646Z,76.35
2022-10-28T18:27:12.940Z,76.8
2022-10-28T18:29:14.377Z,76.93
2022-10-28T18:31:15.592Z,75.62
2022-10-28T18:33:17.138Z,75.45
2022-10-28T18:35:18.118Z,76.16
2022-10-28T18:37:18.957Z,74.99
2022-10-28T18:39:20.614Z,74.91
2022-10-28T18:41:21.570Z,74.32
2022-10-28T18:43:22.529Z,74.38
2022-10-28T18:45:23.639Z,74.41
2022-10-28T18:47:24.583Z,74.23
2022-10-28T18:49:25.732Z,73.96
2022-10-28T18:51:26.703Z,74.98
2022-10-28T18:53:28.180Z,76.11
2022-10-28T18:55:29.390Z,77.39
2022-10-28T18:59:32.153Z,77.05
2022-10-28T19:03:35.165Z,75.48
2022-10-28T19:05:36.672Z,76.94
2022-10-28T19:07:37.842Z,76.75
2022-10-28T19:09:39.557Z,76.38
2022-10-28T19:11:41.200Z,76.57
2022-10-28T19:13:42.677Z,77.06
2022-10-28T19:15:44.326Z,78.05
2022-10-28T19:17:45.940Z,78.98
2022-10-28T19:19:47.242Z,78.77
2022-10-28T19:21:48.338Z,78.23
2022-10-28T19:23:49.941Z,78.2
2022-10-28T19:25:51.381Z,78.45
2022-10-28T19:27:52.737Z,79.25
2022-10-28T19:29:54.446Z,80
2022-10-28T19:31:56.234Z,80.45
2022-10-28T19:33:57.517Z,80.55
2022-10-28T19:35:58.888Z,79.48
2022-10-28T19:38:00.754Z,79.41
2022-10-28T19:40:01.662Z,79.72
2022-10-28T19:42:02.662Z,80.26
2022-10-28T19:46:04.689Z,79.96
2022-10-28T19:48:05.661Z,81.75
2022-10-28T19:50:06.985Z,83.28
2022-10-28T19:52:08.114Z,84.03
2022-10-28T19:54:09.782Z,83.53
2022-10-28T19:56:11.393Z,82.79
2022-10-28T19:58:12.799Z,81.87
2022-10-28T20:00:13.905Z,81.66
2022-10-28T20:02:15.196Z,81.94
2022-10-28T20:04:15.968Z,82.23
2022-10-28T20:06:17.842Z,81.72
2022-10-28T20:08:19.310Z,80.36
2022-10-28T20:10:20.431Z,80.8
2022-10-28T20:12:22.196Z,80.5
2022-10-28T20:14:23.763Z,80.32
2022-10-28T20:16:25.122Z,78.89
2022-10-28T20:18:26.064Z,78.62
2022-10-28T20:20:27.770Z,77.83
2022-10-28T20:22:28.714Z,77.23
2022-10-28T20:24:29.564Z,77.54
2022-10-28T20:26:31.395Z,78.74
2022-10-28T20:28:32.861Z,79.43
2022-10-28T20:30:33.786Z,81.41
2022-10-28T20:32:34.767Z,81.78
2022-10-28T20:34:36.075Z,82.21
2022-10-28T20:36:37.003Z,82.67
2022-10-28T20:38:38.766Z,82.99
2022-10-28T20:40:39.819Z,83.56
2022-10-28T20:44:43.015Z,84.26
2022-10-28T20:46:44.103Z,85.04
2022-10-28T20:48:45.233Z,85.32
2022-10-28T20:50:46.963Z,85.64
2022-10-28T20:52:48.760Z,85.45
2022-10-28T20:54:49.805Z,85.12
2022-10-28T20:56:51.318Z,84.81
2022-10-28T20:58:52.655Z,84.38
2022-10-28T21:00:53.557Z,83.91
2022-10-28T21:02:55.199Z,84.14
2022-10-28T21:04:55.883Z,84.26
2022-10-28T21:06:56.947Z,84.37
2022-10-28T21:08:58.479Z,84.71
2022-10-28T21:10:59.454Z,85.03
2022-10-28T21:13:01.224Z,83.9
2022-10-28T21:17:03.947Z,81.84
2022-10-28T21:19:05.038Z,82.89
2022-10-28T21:21:06.522Z,82.94
2022-10-28T21:23:07.819Z,83.65
2022-10-28T21:25:09.458Z,84.13
2022-10-28T21:27:11.095Z,85.38
2022-10-28T21:29:12.378Z,85.91
2022-10-28T21:31:14.093Z,86.83
2022-10-28T21:33:15.767Z,88.39
2022-10-28T21:35:16.875Z,89.29
2022-10-28T21:37:18.272Z,89.54
2022-10-28T21:39:19.781Z,89.77
2022-10-28T21:41:21.137Z,90.06
2022-10-28T21:43:22.996Z,90.42
2022-10-28T21:45:24.273Z,90.67
2022-10-28T21:47:25.652Z,90.91
2022-10-28T21:49:27.566Z,90.96
2022-10-28T21:51:28.446Z,91.39
2022-10-28T21:53:29.915Z,91.15
2022-10-28T21:55:41.903Z,91.08
2022-10-28T21:59:33.673Z,90.93
2022-10-28T22:01:35.174Z,90.66
2022-10-28T22:03:36.116Z,90.42
2022-10-28T22:05:37.539Z,90.08
2022-10-28T22:07:38.756Z,89.81
2022-10-28T22:09:40.535Z,89.79
2022-10-28T22:11:41.888Z,89.72
2022-10-28T22:13:43.677Z,89.33
2022-10-28T22:15:45.132Z,89.6
2022-10-28T22:17:46.415Z,89.56
2022-10-28T22:19:47.511Z,89.62
2022-10-28T22:21:49.001Z,89.07
2022-10-28T22:23:50.761Z,89.74
2022-10-28T22:25:51.822Z,89.94
2022-10-28T22:27:52.852Z,89.78
2022-10-28T22:31:55.659Z,89.9
2022-10-28T22:33:57.422Z,89.5
2022-10-28T22:35:59.145Z,89.28
2022-10-28T22:38:00.861Z,89.2
2022-10-28T22:42:03.888Z,89.04
2022-10-28T22:44:05.646Z,89.53
2022-10-28T22:46:06.886Z,89.78
2022-10-28T22:48:07.914Z,89.87
2022-10-28T22:50:09.391Z,90.33
2022-10-28T22:52:11.038Z,90.97
2022-10-28T22:54:12.776Z,91.28
2022-10-28T22:56:13.790Z,91.51
2022-10-28T22:58:15.203Z,91.51
2022-10-28T23:00:16.914Z,91.57
2022-10-28T23:02:18.755Z,91.82
2022-10-28T23:04:20.197Z,91.84
2022-10-28T23:06:21.568Z,91.95
2022-10-28T23:08:22.821Z,92.12
2022-10-28T23:10:23.765Z,92.93
2022-10-28T23:12:25.568Z,92.97
2022-10-28T23:14:26.730Z,92.84
2022-10-28T23:16:28.229Z,92.53
2022-10-28T23:18:30.003Z,92.42
2022-10-28T23:20:31.274Z,91.87
2022-10-28T23:22:33.062Z,91.64
2022-10-28T23:24:34.830Z,91.5
2022-10-28T23:26:35.911Z,91.36
2022-10-28T23:30:39.008Z,91.5
2022-10-28T23:32:40.859Z,91.82
2022-10-28T23:34:42.675Z,92.15
2022-10-28T23:36:44.232Z,92.18
2022-10-28T23:40:46.888Z,92.13
2022-10-28T23:42:47.908Z,92.36
2022-10-28T23:44:49.285Z,92.07
2022-10-28T23:46:50.590Z,91.76
2022-10-28T23:48:51.653Z,91.85
2022-10-28T23:50:53.185Z,92.13
2022-10-28T23:52:54.594Z,92.37
2022-10-28T23:56:56.588Z,92.62
2022-10-28T23:58:57.602Z,93.19
